sensor_id;sensor_type;location;lat;lon;timestamp;temperature;humidity
52495;DHT22;38405;53.212;5.660;2024-02-21T00:00:17;8.70;99.90
52495;DHT22;38405;53.212;5.660;2024-02-21T00:02:43;8.80;99.90
52495;DHT22;38405;53.212;5.660;2024-02-21T00:05:09;8.90;99.90
52495;DHT22;38405;53.212;5.660;2024-02-21T00:07:35;8.70;99.90
52495;DHT22;38405;53.212;5.660;2024-02-21T00:10:00;8.70;99.90
52495;DHT22;38405;53.212;5.660;2024-02-21T00:12:26;8.90;99.90
52495;DHT22;38405;53.212;5.660;2024-02-21T00:14:51;8.70;99.90
52495;DHT22;38405;53.212;5.660;2024-02-21T00:17:17;8.70;99.90
52495;DHT22;38405;53.212;5.660;2024-02-21T00:19:43;8.90;99.90
52495;DHT22;38405;53.212;5.660;2024-02-21T00:22:08;8.70;99.90
52495;DHT22;38405;53.212;5.660;2024-02-21T00:24:34;8.80;99.90
52495;DHT22;38405;53.212;5.660;2024-02-21T00:26:59;8.80;99.90
52495;DHT22;38405;53.212;5.660;2024-02-21T00:29:25;8.90;99.90
52495;DHT22;38405;53.212;5.660;2024-02-21T00:31:51;8.60;99.90
52495;DHT22;38405;53.212;5.660;2024-02-21T00:34:17;8.70;99.90
52495;DHT22;38405;53.212;5.660;2024-02-21T00:36:42;8.80;99.90
52495;DHT22;38405;53.212;5.660;2024-02-21T00:39:08;8.60;99.90
52495;DHT22;38405;53.212;5.660;2024-02-21T00:41:33;8.80;99.90
52495;DHT22;38405;53.212;5.660;2024-02-21T00:43:59;8.70;99.90
52495;DHT22;38405;53.212;5.660;2024-02-21T00:46:25;8.70;99.90
52495;DHT22;38405;53.212;5.660;2024-02-21T00:48:50;8.80;99.90
52495;DHT22;38405;53.212;5.660;2024-02-21T00:51:16;8.80;99.90
52495;DHT22;38405;53.212;5.660;2024-02-21T00:53:42;8.60;99.90
52495;DHT22;38405;53.212;5.660;2024-02-21T00:56:08;8.50;99.90
52495;DHT22;38405;53.212;5.660;2024-02-21T00:58:34;8.80;99.90
52495;DHT22;38405;53.212;5.660;2024-02-21T01:01:00;8.60;99.90
52495;DHT22;38405;53.212;5.660;2024-02-21T01:03:26;8.50;99.90
52495;DHT22;38405;53.212;5.660;2024-02-21T01:05:52;9.00;99.90
52495;DHT22;38405;53.212;5.660;2024-02-21T01:08:17;9.00;99.90
52495;DHT22;38405;53.212;5.660;2024-02-21T01:10:43;8.70;99.90
52495;DHT22;38405;53.212;5.660;2024-02-21T01:13:09;8.90;99.90
52495;DHT22;38405;53.212;5.660;2024-02-21T01:15:34;8.80;99.90
52495;DHT22;38405;53.212;5.660;2024-02-21T01:18:01;8.60;99.90
52495;DHT22;38405;53.212;5.660;2024-02-21T01:20:26;8.80;99.90
52495;DHT22;38405;53.212;5.660;2024-02-21T01:22:52;8.80;99.90
52495;DHT22;38405;53.212;5.660;2024-02-21T01:25:18;8.80;99.90
52495;DHT22;38405;53.212;5.660;2024-02-21T01:27:43;8.80;99.90
52495;DHT22;38405;53.212;5.660;2024-02-21T01:30:09;8.60;99.90
52495;DHT22;38405;53.212;5.660;2024-02-21T01:32:36;8.80;99.90
52495;DHT22;38405;53.212;5.660;2024-02-21T01:35:02;8.60;99.90
52495;DHT22;38405;53.212;5.660;2024-02-21T01:37:27;8.60;99.90
52495;DHT22;38405;53.212;5.660;2024-02-21T01:39:53;8.80;99.90
52495;DHT22;38405;53.212;5.660;2024-02-21T01:42:19;8.70;99.90
52495;DHT22;38405;53.212;5.660;2024-02-21T01:44:44;9.00;99.90
52495;DHT22;38405;53.212;5.660;2024-02-21T01:47:11;8.70;99.90
52495;DHT22;38405;53.212;5.660;2024-02-21T01:49:42;8.60;99.90
52495;DHT22;38405;53.212;5.660;2024-02-21T01:52:09;8.60;99.90
52495;DHT22;38405;53.212;5.660;2024-02-21T01:54:35;8.70;99.90
52495;DHT22;38405;53.212;5.660;2024-02-21T01:57:01;8.70;99.90
52495;DHT22;38405;53.212;5.660;2024-02-21T01:59:27;8.70;99.90
52495;DHT22;38405;53.212;5.660;2024-02-21T02:01:53;8.80;99.90
52495;DHT22;38405;53.212;5.660;2024-02-21T02:04:20;8.80;99.90
52495;DHT22;38405;53.212;5.660;2024-02-21T02:06:46;8.80;99.90
52495;DHT22;38405;53.212;5.660;2024-02-21T02:09:12;8.80;99.90
52495;DHT22;38405;53.212;5.660;2024-02-21T02:11:37;8.70;99.90
52495;DHT22;38405;53.212;5.660;2024-02-21T02:14:03;8.80;99.90
52495;DHT22;38405;53.212;5.660;2024-02-21T02:16:29;8.70;99.90
52495;DHT22;38405;53.212;5.660;2024-02-21T02:18:54;8.50;99.90
52495;DHT22;38405;53.212;5.660;2024-02-21T02:21:28;8.70;99.90
52495;DHT22;38405;53.212;5.660;2024-02-21T02:23:55;8.60;99.90
52495;DHT22;38405;53.212;5.660;2024-02-21T02:26:20;8.50;99.90
52495;DHT22;38405;53.212;5.660;2024-02-21T02:28:46;9.00;99.90
52495;DHT22;38405;53.212;5.660;2024-02-21T02:31:11;8.70;99.90
52495;DHT22;38405;53.212;5.660;2024-02-21T02:33:37;8.70;99.90
52495;DHT22;38405;53.212;5.660;2024-02-21T02:36:03;8.60;99.90
52495;DHT22;38405;53.212;5.660;2024-02-21T02:38:29;8.50;99.90
52495;DHT22;38405;53.212;5.660;2024-02-21T02:40:54;8.50;99.90
52495;DHT22;38405;53.212;5.660;2024-02-21T02:43:20;8.30;99.90
52495;DHT22;38405;53.212;5.660;2024-02-21T02:45:45;8.40;99.90
52495;DHT22;38405;53.212;5.660;2024-02-21T02:48:11;8.40;99.90
52495;DHT22;38405;53.212;5.660;2024-02-21T02:50:37;8.50;99.90
52495;DHT22;38405;53.212;5.660;2024-02-21T02:53:02;8.50;99.90
52495;DHT22;38405;53.212;5.660;2024-02-21T02:55:28;8.30;99.90
52495;DHT22;38405;53.212;5.660;2024-02-21T02:57:54;8.50;99.90
52495;DHT22;38405;53.212;5.660;2024-02-21T03:00:20;8.60;99.90
52495;DHT22;38405;53.212;5.660;2024-02-21T03:02:46;8.60;99.90
52495;DHT22;38405;53.212;5.660;2024-02-21T03:05:20;8.40;99.90
52495;DHT22;38405;53.212;5.660;2024-02-21T03:07:47;8.60;99.90
52495;DHT22;38405;53.212;5.660;2024-02-21T03:10:14;8.60;99.90
52495;DHT22;38405;53.212;5.660;2024-02-21T03:12:42;8.50;99.90
52495;DHT22;38405;53.212;5.660;2024-02-21T03:15:08;8.50;99.90
52495;DHT22;38405;53.212;5.660;2024-02-21T03:17:34;8.50;99.90
52495;DHT22;38405;53.212;5.660;2024-02-21T03:20:00;8.40;99.90
52495;DHT22;38405;53.212;5.660;2024-02-21T03:22:26;8.50;99.90
52495;DHT22;38405;53.212;5.660;2024-02-21T03:24:52;8.70;99.90
52495;DHT22;38405;53.212;5.660;2024-02-21T03:27:18;8.40;99.90
52495;DHT22;38405;53.212;5.660;2024-02-21T03:29:44;8.50;99.90
52495;DHT22;38405;53.212;5.660;2024-02-21T03:32:09;8.70;99.90
52495;DHT22;38405;53.212;5.660;2024-02-21T03:34:35;8.70;99.90
52495;DHT22;38405;53.212;5.660;2024-02-21T03:37:01;8.60;99.90
52495;DHT22;38405;53.212;5.660;2024-02-21T03:39:27;8.70;99.90
52495;DHT22;38405;53.212;5.660;2024-02-21T03:41:52;8.50;99.90
52495;DHT22;38405;53.212;5.660;2024-02-21T03:44:19;8.50;99.90
52495;DHT22;38405;53.212;5.660;2024-02-21T03:46:44;8.70;99.90
52495;DHT22;38405;53.212;5.660;2024-02-21T03:49:10;8.50;99.90
52495;DHT22;38405;53.212;5.660;2024-02-21T03:51:36;8.50;99.90
52495;DHT22;38405;53.212;5.660;2024-02-21T03:54:01;8.50;99.90
52495;DHT22;38405;53.212;5.660;2024-02-21T03:56:27;8.70;99.90
52495;DHT22;38405;53.212;5.660;2024-02-21T03:58:53;8.70;99.90
52495;DHT22;38405;53.212;5.660;2024-02-21T04:01:18;8.70;99.90
52495;DHT22;38405;53.212;5.660;2024-02-21T04:03:44;8.70;99.90
52495;DHT22;38405;53.212;5.660;2024-02-21T04:06:10;8.70;99.90
52495;DHT22;38405;53.212;5.660;2024-02-21T04:08:36;8.60;99.90
52495;DHT22;38405;53.212;5.660;2024-02-21T04:11:01;8.80;99.90
52495;DHT22;38405;53.212;5.660;2024-02-21T04:13:27;8.70;99.90
52495;DHT22;38405;53.212;5.660;2024-02-21T04:15:53;8.70;99.90
52495;DHT22;38405;53.212;5.660;2024-02-21T04:18:19;8.70;99.90
52495;DHT22;38405;53.212;5.660;2024-02-21T04:20:45;8.70;99.90
52495;DHT22;38405;53.212;5.660;2024-02-21T04:23:10;8.50;99.90
52495;DHT22;38405;53.212;5.660;2024-02-21T04:25:36;8.60;99.90
52495;DHT22;38405;53.212;5.660;2024-02-21T04:28:02;8.60;99.90
52495;DHT22;38405;53.212;5.660;2024-02-21T04:30:28;8.60;99.90
52495;DHT22;38405;53.212;5.660;2024-02-21T04:32:53;8.80;99.90
52495;DHT22;38405;53.212;5.660;2024-02-21T04:35:19;8.60;99.90
52495;DHT22;38405;53.212;5.660;2024-02-21T04:37:45;8.70;99.90
52495;DHT22;38405;53.212;5.660;2024-02-21T04:40:11;8.60;99.90
52495;DHT22;38405;53.212;5.660;2024-02-21T04:42:36;8.80;99.90
52495;DHT22;38405;53.212;5.660;2024-02-21T04:45:02;8.60;99.90
52495;DHT22;38405;53.212;5.660;2024-02-21T04:47:28;8.50;99.90
52495;DHT22;38405;53.212;5.660;2024-02-21T04:49:54;8.50;99.90
52495;DHT22;38405;53.212;5.660;2024-02-21T04:52:19;8.50;99.90
52495;DHT22;38405;53.212;5.660;2024-02-21T04:54:45;8.60;99.90
52495;DHT22;38405;53.212;5.660;2024-02-21T04:57:11;8.70;99.90
52495;DHT22;38405;53.212;5.660;2024-02-21T04:59:36;8.40;99.90
52495;DHT22;38405;53.212;5.660;2024-02-21T05:02:02;8.60;99.90
52495;DHT22;38405;53.212;5.660;2024-02-21T05:04:28;8.60;99.90
52495;DHT22;38405;53.212;5.660;2024-02-21T05:06:54;8.60;99.90
52495;DHT22;38405;53.212;5.660;2024-02-21T05:09:20;8.60;99.90
52495;DHT22;38405;53.212;5.660;2024-02-21T05:11:46;8.60;99.90
52495;DHT22;38405;53.212;5.660;2024-02-21T05:14:12;8.60;99.90
52495;DHT22;38405;53.212;5.660;2024-02-21T05:16:39;8.70;99.90
52495;DHT22;38405;53.212;5.660;2024-02-21T05:19:05;8.60;99.90
52495;DHT22;38405;53.212;5.660;2024-02-21T05:21:31;8.60;99.90
52495;DHT22;38405;53.212;5.660;2024-02-21T05:23:56;8.60;99.90
52495;DHT22;38405;53.212;5.660;2024-02-21T05:26:23;8.50;99.90
52495;DHT22;38405;53.212;5.660;2024-02-21T05:28:49;8.60;99.90
52495;DHT22;38405;53.212;5.660;2024-02-21T05:31:18;8.50;99.90
52495;DHT22;38405;53.212;5.660;2024-02-21T05:33:44;8.50;99.90
52495;DHT22;38405;53.212;5.660;2024-02-21T05:36:10;8.50;99.90
52495;DHT22;38405;53.212;5.660;2024-02-21T05:38:36;8.50;99.90
52495;DHT22;38405;53.212;5.660;2024-02-21T05:41:02;8.80;99.90
52495;DHT22;38405;53.212;5.660;2024-02-21T05:43:27;8.60;99.90
52495;DHT22;38405;53.212;5.660;2024-02-21T05:45:53;8.60;99.90
52495;DHT22;38405;53.212;5.660;2024-02-21T05:48:19;8.70;99.90
52495;DHT22;38405;53.212;5.660;2024-02-21T05:50:45;8.80;99.90
52495;DHT22;38405;53.212;5.660;2024-02-21T05:53:10;8.50;99.90
52495;DHT22;38405;53.212;5.660;2024-02-21T05:55:36;8.60;99.90
52495;DHT22;38405;53.212;5.660;2024-02-21T05:58:02;8.60;99.90
52495;DHT22;38405;53.212;5.660;2024-02-21T06:00:28;8.70;99.90
52495;DHT22;38405;53.212;5.660;2024-02-21T06:02:55;8.50;99.90
52495;DHT22;38405;53.212;5.660;2024-02-21T06:05:20;8.60;99.90
52495;DHT22;38405;53.212;5.660;2024-02-21T06:07:46;8.60;99.90
52495;DHT22;38405;53.212;5.660;2024-02-21T06:10:11;8.60;99.90
52495;DHT22;38405;53.212;5.660;2024-02-21T06:12:37;8.60;99.90
52495;DHT22;38405;53.212;5.660;2024-02-21T06:15:03;8.70;99.90
52495;DHT22;38405;53.212;5.660;2024-02-21T06:17:29;8.60;99.90
52495;DHT22;38405;53.212;5.660;2024-02-21T06:19:54;8.70;99.90
52495;DHT22;38405;53.212;5.660;2024-02-21T06:22:20;8.70;99.90
52495;DHT22;38405;53.212;5.660;2024-02-21T06:24:45;8.40;99.90
52495;DHT22;38405;53.212;5.660;2024-02-21T06:27:11;8.60;99.90
52495;DHT22;38405;53.212;5.660;2024-02-21T06:29:37;8.50;99.90
52495;DHT22;38405;53.212;5.660;2024-02-21T06:32:03;8.70;99.90
52495;DHT22;38405;53.212;5.660;2024-02-21T06:34:29;8.30;99.90
52495;DHT22;38405;53.212;5.660;2024-02-21T06:36:54;8.60;99.90
52495;DHT22;38405;53.212;5.660;2024-02-21T06:39:20;8.40;99.90
52495;DHT22;38405;53.212;5.660;2024-02-21T06:41:47;8.60;99.90
52495;DHT22;38405;53.212;5.660;2024-02-21T06:44:18;8.60;99.90
52495;DHT22;38405;53.212;5.660;2024-02-21T06:46:44;8.40;99.90
52495;DHT22;38405;53.212;5.660;2024-02-21T06:49:09;8.60;99.90
52495;DHT22;38405;53.212;5.660;2024-02-21T06:51:41;8.50;99.90
52495;DHT22;38405;53.212;5.660;2024-02-21T06:54:07;8.40;99.90
52495;DHT22;38405;53.212;5.660;2024-02-21T06:56:33;8.50;99.90
52495;DHT22;38405;53.212;5.660;2024-02-21T06:58:59;8.30;99.90
52495;DHT22;38405;53.212;5.660;2024-02-21T07:01:24;8.40;99.90
52495;DHT22;38405;53.212;5.660;2024-02-21T07:03:50;8.30;99.90
52495;DHT22;38405;53.212;5.660;2024-02-21T07:06:16;8.40;99.90
52495;DHT22;38405;53.212;5.660;2024-02-21T07:08:42;8.50;99.90
52495;DHT22;38405;53.212;5.660;2024-02-21T07:11:07;8.50;99.90
52495;DHT22;38405;53.212;5.660;2024-02-21T07:13:33;8.70;99.90
52495;DHT22;38405;53.212;5.660;2024-02-21T07:15:59;8.70;99.90
52495;DHT22;38405;53.212;5.660;2024-02-21T07:18:24;8.50;99.90
52495;DHT22;38405;53.212;5.660;2024-02-21T07:20:52;8.70;99.90
52495;DHT22;38405;53.212;5.660;2024-02-21T07:23:18;8.50;99.90
52495;DHT22;38405;53.212;5.660;2024-02-21T07:25:44;8.50;99.90
52495;DHT22;38405;53.212;5.660;2024-02-21T07:28:10;8.70;99.90
52495;DHT22;38405;53.212;5.660;2024-02-21T07:30:35;8.50;99.90
52495;DHT22;38405;53.212;5.660;2024-02-21T07:33:01;8.50;99.90
52495;DHT22;38405;53.212;5.660;2024-02-21T07:35:27;8.50;99.90
52495;DHT22;38405;53.212;5.660;2024-02-21T07:37:53;8.70;99.90
52495;DHT22;38405;53.212;5.660;2024-02-21T07:40:18;8.60;99.90
52495;DHT22;38405;53.212;5.660;2024-02-21T07:42:44;8.50;99.90
52495;DHT22;38405;53.212;5.660;2024-02-21T07:45:10;8.70;99.90
52495;DHT22;38405;53.212;5.660;2024-02-21T07:47:36;8.70;99.90
52495;DHT22;38405;53.212;5.660;2024-02-21T07:50:05;8.70;99.90
52495;DHT22;38405;53.212;5.660;2024-02-21T07:52:31;8.60;99.90
52495;DHT22;38405;53.212;5.660;2024-02-21T07:54:57;8.70;99.90
52495;DHT22;38405;53.212;5.660;2024-02-21T07:57:23;8.60;99.90
52495;DHT22;38405;53.212;5.660;2024-02-21T07:59:48;8.70;99.90
52495;DHT22;38405;53.212;5.660;2024-02-21T08:02:17;8.60;99.90
52495;DHT22;38405;53.212;5.660;2024-02-21T08:04:42;8.60;99.90
52495;DHT22;38405;53.212;5.660;2024-02-21T08:07:09;8.90;99.90
52495;DHT22;38405;53.212;5.660;2024-02-21T08:09:35;8.80;99.90
52495;DHT22;38405;53.212;5.660;2024-02-21T08:12:03;8.90;99.90
52495;DHT22;38405;53.212;5.660;2024-02-21T08:14:30;8.60;99.90
52495;DHT22;38405;53.212;5.660;2024-02-21T08:16:56;8.90;99.90
52495;DHT22;38405;53.212;5.660;2024-02-21T08:19:22;8.80;99.90
52495;DHT22;38405;53.212;5.660;2024-02-21T08:21:50;8.90;99.90
52495;DHT22;38405;53.212;5.660;2024-02-21T08:24:16;8.80;99.90
52495;DHT22;38405;53.212;5.660;2024-02-21T08:26:42;8.70;99.90
52495;DHT22;38405;53.212;5.660;2024-02-21T08:29:10;8.70;99.90
52495;DHT22;38405;53.212;5.660;2024-02-21T08:31:36;8.90;99.90
52495;DHT22;38405;53.212;5.660;2024-02-21T08:34:01;8.80;99.90
52495;DHT22;38405;53.212;5.660;2024-02-21T08:36:30;9.00;99.90
52495;DHT22;38405;53.212;5.660;2024-02-21T08:38:56;9.00;99.90
52495;DHT22;38405;53.212;5.660;2024-02-21T08:41:26;8.90;99.90
52495;DHT22;38405;53.212;5.660;2024-02-21T08:43:52;8.80;99.90
52495;DHT22;38405;53.212;5.660;2024-02-21T08:46:20;9.10;99.90
52495;DHT22;38405;53.212;5.660;2024-02-21T08:48:46;8.80;99.90
52495;DHT22;38405;53.212;5.660;2024-02-21T08:51:14;8.90;99.90
52495;DHT22;38405;53.212;5.660;2024-02-21T08:53:40;8.90;99.90
52495;DHT22;38405;53.212;5.660;2024-02-21T08:56:06;8.90;99.90
52495;DHT22;38405;53.212;5.660;2024-02-21T08:58:36;9.20;99.90
52495;DHT22;38405;53.212;5.660;2024-02-21T09:01:03;9.10;99.90
52495;DHT22;38405;53.212;5.660;2024-02-21T09:03:34;9.10;99.90
52495;DHT22;38405;53.212;5.660;2024-02-21T09:06:02;8.90;99.90
52495;DHT22;38405;53.212;5.660;2024-02-21T09:08:27;9.00;99.90
52495;DHT22;38405;53.212;5.660;2024-02-21T09:10:53;9.00;99.90
52495;DHT22;38405;53.212;5.660;2024-02-21T09:13:19;9.20;99.90
52495;DHT22;38405;53.212;5.660;2024-02-21T09:15:44;9.20;99.90
52495;DHT22;38405;53.212;5.660;2024-02-21T09:18:10;9.00;99.90
52495;DHT22;38405;53.212;5.660;2024-02-21T09:20:36;9.10;99.90
52495;DHT22;38405;53.212;5.660;2024-02-21T09:23:02;9.30;99.90
52495;DHT22;38405;53.212;5.660;2024-02-21T09:25:27;9.30;99.90
52495;DHT22;38405;53.212;5.660;2024-02-21T09:27:54;9.10;99.90
52495;DHT22;38405;53.212;5.660;2024-02-21T09:30:20;9.10;99.90
52495;DHT22;38405;53.212;5.660;2024-02-21T09:32:46;9.20;99.90
52495;DHT22;38405;53.212;5.660;2024-02-21T09:35:12;9.30;99.90
52495;DHT22;38405;53.212;5.660;2024-02-21T09:37:38;9.20;99.90
52495;DHT22;38405;53.212;5.660;2024-02-21T09:40:05;9.10;99.90
52495;DHT22;38405;53.212;5.660;2024-02-21T09:42:41;9.30;99.90
52495;DHT22;38405;53.212;5.660;2024-02-21T09:45:15;9.40;99.90
52495;DHT22;38405;53.212;5.660;2024-02-21T09:50:32;9.30;99.90
52495;DHT22;38405;53.212;5.660;2024-02-21T09:52:58;9.20;99.90
52495;DHT22;38405;53.212;5.660;2024-02-21T09:55:27;9.40;99.90
52495;DHT22;38405;53.212;5.660;2024-02-21T09:57:56;9.30;99.90
52495;DHT22;38405;53.212;5.660;2024-02-21T10:00:23;9.40;99.90
52495;DHT22;38405;53.212;5.660;2024-02-21T10:02:49;9.30;99.90
52495;DHT22;38405;53.212;5.660;2024-02-21T10:05:16;9.30;99.90
52495;DHT22;38405;53.212;5.660;2024-02-21T10:07:41;9.20;99.90
52495;DHT22;38405;53.212;5.660;2024-02-21T10:10:08;9.40;99.90
52495;DHT22;38405;53.212;5.660;2024-02-21T10:12:33;9.30;99.90
52495;DHT22;38405;53.212;5.660;2024-02-21T10:15:03;9.40;99.90
52495;DHT22;38405;53.212;5.660;2024-02-21T10:17:29;9.40;99.90
52495;DHT22;38405;53.212;5.660;2024-02-21T10:19:54;9.40;99.90
52495;DHT22;38405;53.212;5.660;2024-02-21T10:22:20;9.40;99.90
52495;DHT22;38405;53.212;5.660;2024-02-21T10:24:46;9.30;99.90
52495;DHT22;38405;53.212;5.660;2024-02-21T10:27:12;9.50;99.90
52495;DHT22;38405;53.212;5.660;2024-02-21T10:29:39;9.50;99.90
52495;DHT22;38405;53.212;5.660;2024-02-21T10:32:09;9.50;99.90
52495;DHT22;38405;53.212;5.660;2024-02-21T10:34:35;9.50;99.90
52495;DHT22;38405;53.212;5.660;2024-02-21T10:37:05;9.60;99.90
52495;DHT22;38405;53.212;5.660;2024-02-21T10:39:39;9.70;99.90
52495;DHT22;38405;53.212;5.660;2024-02-21T10:42:05;9.70;99.90
52495;DHT22;38405;53.212;5.660;2024-02-21T10:44:33;9.70;99.90
52495;DHT22;38405;53.212;5.660;2024-02-21T10:46:59;9.80;99.90
52495;DHT22;38405;53.212;5.660;2024-02-21T10:49:26;9.70;99.90
52495;DHT22;38405;53.212;5.660;2024-02-21T10:57:10;9.40;99.90
52495;DHT22;38405;53.212;5.660;2024-02-21T10:59:39;9.60;99.90
52495;DHT22;38405;53.212;5.660;2024-02-21T11:02:06;9.40;99.90
52495;DHT22;38405;53.212;5.660;2024-02-21T11:04:33;9.30;99.90
52495;DHT22;38405;53.212;5.660;2024-02-21T11:07:05;9.40;99.90
52495;DHT22;38405;53.212;5.660;2024-02-21T11:09:31;9.40;99.90
52495;DHT22;38405;53.212;5.660;2024-02-21T11:11:58;9.30;99.90
52495;DHT22;38405;53.212;5.660;2024-02-21T11:14:27;9.40;99.90
52495;DHT22;38405;53.212;5.660;2024-02-21T11:16:53;9.30;99.90
52495;DHT22;38405;53.212;5.660;2024-02-21T11:19:28;9.30;99.90
52495;DHT22;38405;53.212;5.660;2024-02-21T11:21:55;9.30;99.90
52495;DHT22;38405;53.212;5.660;2024-02-21T11:24:40;9.40;99.90
52495;DHT22;38405;53.212;5.660;2024-02-21T11:27:13;9.80;99.90
52495;DHT22;38405;53.212;5.660;2024-02-21T11:29:46;9.40;99.90
52495;DHT22;38405;53.212;5.660;2024-02-21T11:32:15;9.40;99.90
52495;DHT22;38405;53.212;5.660;2024-02-21T11:34:53;9.50;99.90
52495;DHT22;38405;53.212;5.660;2024-02-21T11:37:19;9.40;99.90
52495;DHT22;38405;53.212;5.660;2024-02-21T11:39:44;9.40;99.90
52495;DHT22;38405;53.212;5.660;2024-02-21T11:42:10;9.30;99.90
52495;DHT22;38405;53.212;5.660;2024-02-21T11:44:37;9.30;99.90
52495;DHT22;38405;53.212;5.660;2024-02-21T11:47:04;9.30;99.90
52495;DHT22;38405;53.212;5.660;2024-02-21T11:49:30;9.30;99.90
52495;DHT22;38405;53.212;5.660;2024-02-21T11:52:03;9.40;99.90
52495;DHT22;38405;53.212;5.660;2024-02-21T11:54:33;9.40;99.90
52495;DHT22;38405;53.212;5.660;2024-02-21T11:56:59;9.40;99.90
52495;DHT22;38405;53.212;5.660;2024-02-21T11:59:26;9.40;99.90
52495;DHT22;38405;53.212;5.660;2024-02-21T12:01:53;9.40;99.90
52495;DHT22;38405;53.212;5.660;2024-02-21T12:04:20;9.50;99.90
52495;DHT22;38405;53.212;5.660;2024-02-21T12:06:46;9.40;99.90
52495;DHT22;38405;53.212;5.660;2024-02-21T12:09:18;9.40;99.90
52495;DHT22;38405;53.212;5.660;2024-02-21T12:11:45;9.50;99.90
52495;DHT22;38405;53.212;5.660;2024-02-21T12:14:15;9.50;99.90
52495;DHT22;38405;53.212;5.660;2024-02-21T12:16:41;9.50;99.90
52495;DHT22;38405;53.212;5.660;2024-02-21T12:19:07;9.60;99.90
52495;DHT22;38405;53.212;5.660;2024-02-21T12:21:34;9.50;99.90
52495;DHT22;38405;53.212;5.660;2024-02-21T12:24:17;9.60;99.90
52495;DHT22;38405;53.212;5.660;2024-02-21T12:26:43;9.50;99.90
52495;DHT22;38405;53.212;5.660;2024-02-21T12:29:09;9.50;99.90
52495;DHT22;38405;53.212;5.660;2024-02-21T12:31:38;9.50;99.90
52495;DHT22;38405;53.212;5.660;2024-02-21T12:34:04;9.60;99.90
52495;DHT22;38405;53.212;5.660;2024-02-21T12:36:33;9.50;99.90
52495;DHT22;38405;53.212;5.660;2024-02-21T12:38:59;9.50;99.90
52495;DHT22;38405;53.212;5.660;2024-02-21T12:41:27;9.50;99.90
52495;DHT22;38405;53.212;5.660;2024-02-21T12:43:53;9.50;99.90
52495;DHT22;38405;53.212;5.660;2024-02-21T12:46:19;9.50;99.90
52495;DHT22;38405;53.212;5.660;2024-02-21T12:48:44;9.50;99.90
52495;DHT22;38405;53.212;5.660;2024-02-21T12:51:10;9.50;99.90
52495;DHT22;38405;53.212;5.660;2024-02-21T12:53:36;9.50;99.90
52495;DHT22;38405;53.212;5.660;2024-02-21T12:56:02;9.50;99.90
52495;DHT22;38405;53.212;5.660;2024-02-21T12:58:30;9.60;99.90
52495;DHT22;38405;53.212;5.660;2024-02-21T13:00:57;9.60;99.90
52495;DHT22;38405;53.212;5.660;2024-02-21T13:03:22;9.60;99.90
52495;DHT22;38405;53.212;5.660;2024-02-21T13:05:48;9.70;99.90
52495;DHT22;38405;53.212;5.660;2024-02-21T13:08:13;9.60;99.90
52495;DHT22;38405;53.212;5.660;2024-02-21T13:10:39;9.70;99.90
52495;DHT22;38405;53.212;5.660;2024-02-21T13:13:05;9.70;99.90
52495;DHT22;38405;53.212;5.660;2024-02-21T13:15:30;9.70;99.90
52495;DHT22;38405;53.212;5.660;2024-02-21T13:17:57;9.70;99.90
52495;DHT22;38405;53.212;5.660;2024-02-21T13:20:26;9.70;99.90
52495;DHT22;38405;53.212;5.660;2024-02-21T13:22:52;10.00;99.90
52495;DHT22;38405;53.212;5.660;2024-02-21T13:25:18;9.70;99.90
52495;DHT22;38405;53.212;5.660;2024-02-21T13:27:46;9.70;99.90
52495;DHT22;38405;53.212;5.660;2024-02-21T13:30:12;9.60;99.90
52495;DHT22;38405;53.212;5.660;2024-02-21T13:32:41;9.60;99.90
52495;DHT22;38405;53.212;5.660;2024-02-21T13:35:08;9.60;99.90
52495;DHT22;38405;53.212;5.660;2024-02-21T13:37:34;9.60;99.90
52495;DHT22;38405;53.212;5.660;2024-02-21T13:40:00;9.50;99.90
52495;DHT22;38405;53.212;5.660;2024-02-21T13:42:26;9.50;99.90
52495;DHT22;38405;53.212;5.660;2024-02-21T13:44:53;9.60;99.90
52495;DHT22;38405;53.212;5.660;2024-02-21T13:47:19;9.70;99.90
52495;DHT22;38405;53.212;5.660;2024-02-21T13:49:44;9.60;99.90
52495;DHT22;38405;53.212;5.660;2024-02-21T13:52:10;9.60;99.90
52495;DHT22;38405;53.212;5.660;2024-02-21T13:54:35;9.80;99.90
52495;DHT22;38405;53.212;5.660;2024-02-21T13:57:01;9.50;99.90
52495;DHT22;38405;53.212;5.660;2024-02-21T13:59:28;9.40;99.90
52495;DHT22;38405;53.212;5.660;2024-02-21T14:01:53;9.40;99.90
52495;DHT22;38405;53.212;5.660;2024-02-21T14:04:19;9.40;99.90
52495;DHT22;38405;53.212;5.660;2024-02-21T14:06:45;9.40;99.90
52495;DHT22;38405;53.212;5.660;2024-02-21T14:09:12;9.40;99.90
52495;DHT22;38405;53.212;5.660;2024-02-21T14:11:38;9.30;99.90
52495;DHT22;38405;53.212;5.660;2024-02-21T14:14:05;9.40;99.90
52495;DHT22;38405;53.212;5.660;2024-02-21T14:16:31;9.40;99.90
52495;DHT22;38405;53.212;5.660;2024-02-21T14:18:57;9.40;99.90
52495;DHT22;38405;53.212;5.660;2024-02-21T14:21:23;9.40;99.90
52495;DHT22;38405;53.212;5.660;2024-02-21T14:23:48;9.40;99.90
52495;DHT22;38405;53.212;5.660;2024-02-21T14:26:14;9.40;99.90
52495;DHT22;38405;53.212;5.660;2024-02-21T14:28:40;9.40;99.90
52495;DHT22;38405;53.212;5.660;2024-02-21T14:31:07;9.40;99.90
52495;DHT22;38405;53.212;5.660;2024-02-21T14:33:37;9.30;99.90
52495;DHT22;38405;53.212;5.660;2024-02-21T14:36:03;9.40;99.90
52495;DHT22;38405;53.212;5.660;2024-02-21T14:38:29;9.30;99.90
52495;DHT22;38405;53.212;5.660;2024-02-21T14:40:55;9.30;99.90
52495;DHT22;38405;53.212;5.660;2024-02-21T14:43:21;9.30;99.90
52495;DHT22;38405;53.212;5.660;2024-02-21T14:45:47;9.20;99.90
52495;DHT22;38405;53.212;5.660;2024-02-21T14:48:13;9.30;99.90
52495;DHT22;38405;53.212;5.660;2024-02-21T14:50:39;9.50;99.90
52495;DHT22;38405;53.212;5.660;2024-02-21T14:53:04;9.30;99.90
52495;DHT22;38405;53.212;5.660;2024-02-21T14:55:30;9.30;99.90
52495;DHT22;38405;53.212;5.660;2024-02-21T14:57:56;9.30;99.90
52495;DHT22;38405;53.212;5.660;2024-02-21T15:00:21;9.30;99.90
52495;DHT22;38405;53.212;5.660;2024-02-21T15:02:54;9.30;99.90
52495;DHT22;38405;53.212;5.660;2024-02-21T15:05:20;9.30;99.90
52495;DHT22;38405;53.212;5.660;2024-02-21T15:07:46;9.30;99.90
52495;DHT22;38405;53.212;5.660;2024-02-21T15:10:11;9.30;99.90
52495;DHT22;38405;53.212;5.660;2024-02-21T15:12:37;9.30;99.90
52495;DHT22;38405;53.212;5.660;2024-02-21T15:15:03;9.20;99.90
52495;DHT22;38405;53.212;5.660;2024-02-21T15:17:30;9.30;99.90
52495;DHT22;38405;53.212;5.660;2024-02-21T15:19:57;9.30;99.90
52495;DHT22;38405;53.212;5.660;2024-02-21T15:22:24;9.20;99.90
52495;DHT22;38405;53.212;5.660;2024-02-21T15:24:50;9.30;99.90
52495;DHT22;38405;53.212;5.660;2024-02-21T15:27:16;9.50;99.90
52495;DHT22;38405;53.212;5.660;2024-02-21T15:29:42;9.30;99.90
52495;DHT22;38405;53.212;5.660;2024-02-21T15:32:08;9.20;99.90
52495;DHT22;38405;53.212;5.660;2024-02-21T15:34:34;9.10;99.90
52495;DHT22;38405;53.212;5.660;2024-02-21T15:37:00;9.00;99.90
52495;DHT22;38405;53.212;5.660;2024-02-21T15:39:25;9.00;99.90
52495;DHT22;38405;53.212;5.660;2024-02-21T15:41:54;9.00;99.90
52495;DHT22;38405;53.212;5.660;2024-02-21T15:44:20;9.00;99.90
52495;DHT22;38405;53.212;5.660;2024-02-21T15:46:47;9.10;99.90